Time;durP1;ratioP1;P1;durP2;ratioP2;P2;SDS_P1;SDS_P2;PMS_P1;PMS_P2;Temp;Humidity;BMP_temperature;BMP_pressure;BME280_temperature;BME280_humidity;BME280_pressure;Samples;Min_cycle;Max_cycle;Signal;HPM_P1;HPM_P2
2021/07/13 00:00:32;;;;;;;1.35;0.50;;;11.20;76.10;;;;;;5013432;28;20034;-67
2021/07/13 00:03:00;;;;;;;2.92;0.60;;;11.10;76.50;;;;;;5012194;28;20018;-67
2021/07/13 00:05:27;;;;;;;3.08;0.68;;;11.20;76.60;;;;;;5012324;28;20053;-67
2021/07/13 00:07:54;;;;;;;3.35;1.42;;;11.10;74.90;;;;;;5014731;28;20557;-67
2021/07/13 00:10:25;;;;;;;4.82;1.33;;;11.10;73.30;;;;;;5013426;28;20578;-67
2021/07/13 00:12:52;;;;;;;4.10;0.77;;;11.10;70.50;;;;;;5013311;28;20033;-67
2021/07/13 00:15:22;;;;;;;6.18;1.45;;;11.00;70.90;;;;;;5012525;28;20431;-67
2021/07/13 00:17:50;;;;;;;2.53;0.60;;;11.10;71.70;;;;;;5013744;28;20046;-67
2021/07/13 00:20:17;;;;;;;3.28;1.00;;;11.10;72.20;;;;;;5009447;28;20080;-67
2021/07/13 00:23:23;;;;;;;4.97;1.10;;;11.10;72.30;;;;;;5012644;28;20084;-67
2021/07/13 00:26:29;;;;;;;3.85;0.98;;;11.10;73.10;;;;;;5010021;28;20088;-67
2021/07/13 00:29:35;;;;;;;3.58;0.60;;;11.10;73.40;;;;;;5011397;28;20079;-67
2021/07/13 00:32:41;;;;;;;6.47;1.40;;;11.10;73.80;;;;;;5009933;28;20054;-67
2021/07/13 00:35:47;;;;;;;8.13;1.40;;;11.10;74.50;;;;;;5011427;28;20267;-67
2021/07/13 00:38:53;;;;;;;1.70;0.82;;;11.00;74.90;;;;;;5012336;28;20017;-67
2021/07/13 00:41:59;;;;;;;13.03;2.00;;;11.00;75.70;;;;;;5012856;28;20034;-67
2021/07/13 00:45:05;;;;;;;3.53;1.23;;;10.90;75.60;;;;;;5013603;28;20026;-67
2021/07/13 00:48:11;;;;;;;7.10;1.10;;;10.90;76.10;;;;;;5011578;28;20022;-67
2021/07/13 00:51:17;;;;;;;6.50;0.90;;;10.90;76.50;;;;;;5009907;28;20283;-67
2021/07/13 00:54:24;;;;;;;6.17;1.10;;;10.90;76.50;;;;;;5010814;28;20275;-67
2021/07/13 00:57:30;;;;;;;4.45;1.20;;;10.90;76.10;;;;;;5012189;28;20030;-67
2021/07/13 01:00:36;;;;;;;1.23;0.93;;;11.00;75.50;;;;;;5011682;28;20406;-67
2021/07/13 01:03:42;;;;;;;7.80;1.35;;;11.00;75.60;;;;;;5011303;28;20038;-67
2021/07/13 01:06:48;;;;;;;2.97;0.87;;;11.00;75.60;;;;;;5011805;28;20372;-67
2021/07/13 01:09:40;;;;;;;4.83;1.17;;;11.00;75.40;;;;;;5009933;28;20634;-67
2021/07/13 01:12:26;;;;;;;2.72;0.85;;;11.00;76.10;;;;;;5010187;28;20299;-67
2021/07/13 01:15:33;;;;;;;4.78;0.75;;;10.90;76.50;;;;;;5011429;28;20064;-67
2021/07/13 01:18:42;;;;;;;13.60;1.33;;;10.90;76.70;;;;;;5011154;28;20064;-67
2021/07/13 01:21:50;;;;;;;4.03;1.88;;;10.80;76.50;;;;;;5011586;28;20397;-67
2021/07/13 01:25:14;;;;;;;4.15;0.98;;;10.80;76.90;;;;;;5010228;28;20026;-67
2021/07/13 01:27:56;;;;;;;5.45;0.85;;;10.70;77.20;;;;;;5008656;28;20033;-67
2021/07/13 01:31:02;;;;;;;1.70;0.98;;;10.70;77.40;;;;;;5011153;28;20022;-67
2021/07/13 01:34:08;;;;;;;3.22;1.20;;;10.60;77.70;;;;;;5011381;28;20051;-67
2021/07/13 01:37:17;;;;;;;7.68;1.00;;;10.60;78.10;;;;;;5009137;28;20024;-67
2021/07/13 01:40:23;;;;;;;5.43;1.10;;;10.60;78.10;;;;;;5011388;28;20036;-67
2021/07/13 01:43:32;;;;;;;4.43;1.30;;;10.60;78.40;;;;;;5009473;28;20026;-67
2021/07/13 01:46:38;;;;;;;5.18;1.30;;;10.50;78.10;;;;;;5010363;28;20443;-67
2021/07/13 01:49:44;;;;;;;2.23;0.97;;;10.50;78.70;;;;;;5011509;28;20540;-67
2021/07/13 01:52:50;;;;;;;6.53;1.27;;;10.50;78.90;;;;;;5010633;28;20038;-67
2021/07/13 01:55:56;;;;;;;7.25;1.15;;;10.60;78.20;;;;;;5011877;28;20329;-67
2021/07/13 01:59:02;;;;;;;5.23;1.00;;;10.60;77.30;;;;;;5008518;28;20026;-67
2021/07/13 02:02:08;;;;;;;1.83;0.70;;;10.70;77.60;;;;;;5013686;28;20295;-67
2021/07/13 02:05:14;;;;;;;7.93;1.57;;;10.70;77.80;;;;;;5011231;28;20215;-67
2021/07/13 02:08:20;;;;;;;2.50;0.93;;;10.70;78.10;;;;;;5009756;28;20302;-67
2021/07/13 02:11:26;;;;;;;3.20;1.30;;;10.70;78.70;;;;;;5009870;28;20033;-67
2021/07/13 02:14:11;;;;;;;4.67;1.27;;;10.70;79.10;;;;;;5009874;28;20329;-67
2021/07/13 02:16:37;;;;;;;3.63;1.60;;;10.60;79.40;;;;;;5011505;28;20022;-67
2021/07/13 02:19:08;;;;;;;3.15;0.80;;;10.60;79.50;;;;;;5010560;28;20041;-67
2021/07/13 02:21:36;;;;;;;8.02;1.30;;;10.60;79.10;;;;;;5011016;28;20041;-67
2021/07/13 02:24:03;;;;;;;3.45;1.45;;;10.60;79.10;;;;;;5012822;28;20026;-67
2021/07/13 02:26:44;;;;;;;3.42;1.55;;;10.50;79.10;;;;;;5011292;28;20021;-67
2021/07/13 02:29:31;;;;;;;4.50;0.90;;;10.50;78.50;;;;;;5009948;28;20515;-67
2021/07/13 02:32:27;;;;;;;2.15;0.70;;;10.40;78.30;;;;;;5009563;28;20104;-67
2021/07/13 02:34:55;;;;;;;4.05;1.33;;;10.30;78.70;;;;;;5008270;28;20034;-67
2021/07/13 02:37:23;;;;;;;4.47;0.73;;;10.30;78.90;;;;;;5010096;28;20018;-67
2021/07/13 02:39:50;;;;;;;6.43;0.95;;;10.30;78.70;;;;;;5010895;28;20044;-67
2021/07/13 02:42:18;;;;;;;6.43;1.20;;;10.30;78.50;;;;;;5012028;28;20033;-67
2021/07/13 02:44:47;;;;;;;1.20;0.63;;;10.20;78.60;;;;;;5014945;28;20104;-67
2021/07/13 02:47:14;;;;;;;3.10;0.68;;;10.20;78.70;;;;;;5009639;28;20029;-67
2021/07/13 02:50:20;;;;;;;2.42;0.40;;;10.20;79.20;;;;;;5010016;28;20100;-67
2021/07/13 02:53:26;;;;;;;2.97;1.20;;;10.20;79.60;;;;;;5010781;28;20026;-67
2021/07/13 02:56:32;;;;;;;2.67;1.07;;;10.30;80.00;;;;;;5008216;28;20026;-67
2021/07/13 02:59:38;;;;;;;10.90;1.57;;;10.30;80.20;;;;;;5010226;28;20062;-67
2021/07/13 03:02:45;;;;;;;8.60;1.90;;;10.30;80.30;;;;;;5005770;28;20305;-67
2021/07/13 03:05:52;;;;;;;4.32;0.93;;;10.40;80.30;;;;;;5009043;28;20044;-67
2021/07/13 03:09:01;;;;;;;4.28;1.90;;;10.40;80.00;;;;;;5010786;28;20130;-67
2021/07/13 03:12:07;;;;;;;2.63;1.00;;;10.40;79.90;;;;;;5011452;28;20084;-67
2021/07/13 03:15:13;;;;;;;4.00;1.00;;;10.30;79.70;;;;;;5010693;28;20698;-67
2021/07/13 03:18:19;;;;;;;6.93;2.75;;;10.30;79.10;;;;;;5006968;28;20046;-67
2021/07/13 03:21:25;;;;;;;6.07;1.65;;;10.30;79.30;;;;;;5012081;28;20060;-67
2021/07/13 03:24:31;;;;;;;5.13;1.33;;;10.20;79.50;;;;;;5016815;28;20485;-67
2021/07/13 03:27:37;;;;;;;7.30;1.30;;;10.20;79.70;;;;;;5014124;28;20037;-67
2021/07/13 03:30:43;;;;;;;3.50;1.23;;;10.20;79.60;;;;;;5012047;28;20037;-67
2021/07/13 03:33:49;;;;;;;3.35;0.90;;;10.10;79.50;;;;;;5012205;28;20291;-67
2021/07/13 03:36:55;;;;;;;5.33;1.00;;;10.10;79.60;;;;;;5014054;28;20392;-67
2021/07/13 03:40:02;;;;;;;2.90;1.03;;;10.10;79.40;;;;;;5013241;28;20028;-67
2021/07/13 03:43:08;;;;;;;8.18;2.25;;;10.10;79.10;;;;;;5011953;28;20298;-67
2021/07/13 03:46:14;;;;;;;2.13;1.03;;;10.10;78.80;;;;;;5013279;28;20032;-67
2021/07/13 03:49:20;;;;;;;10.30;1.17;;;10.10;79.10;;;;;;5013342;28;20033;-67
2021/07/13 03:52:26;;;;;;;3.97;1.17;;;10.00;78.80;;;;;;5003232;28;20280;-67
2021/07/13 03:55:32;;;;;;;7.78;1.40;;;10.00;79.10;;;;;;5011319;28;20026;-67
2021/07/13 03:58:38;;;;;;;3.10;1.27;;;10.00;79.10;;;;;;5013025;28;20018;-67
2021/07/13 04:01:44;;;;;;;12.80;2.83;;;10.00;79.30;;;;;;5013390;28;20378;-67
2021/07/13 04:04:50;;;;;;;3.47;0.85;;;10.00;79.70;;;;;;5012698;28;20018;-67
2021/07/13 04:07:56;;;;;;;2.77;1.30;;;9.90;79.70;;;;;;5014838;28;20032;-67
2021/07/13 04:11:02;;;;;;;5.35;1.35;;;9.90;80.10;;;;;;5015165;28;20045;-67
2021/07/13 04:14:08;;;;;;;10.90;1.50;;;9.90;80.10;;;;;;5012797;28;20034;-67
2021/07/13 04:17:14;;;;;;;7.53;1.57;;;9.90;81.00;;;;;;5013493;28;20025;-67
2021/07/13 04:19:42;;;;;;;10.13;1.50;;;9.90;81.70;;;;;;5008643;28;20029;-69
2021/07/13 04:22:08;;;;;;;7.00;1.67;;;9.90;82.00;;;;;;5011406;28;20037;-67
2021/07/13 04:24:35;;;;;;;4.45;0.90;;;10.00;82.30;;;;;;5012463;28;20037;-67
2021/07/13 04:27:01;;;;;;;5.57;1.20;;;10.00;82.50;;;;;;5010415;28;20026;-67
2021/07/13 04:29:28;;;;;;;2.22;0.98;;;10.10;82.60;;;;;;5014830;28;20009;-69
2021/07/13 04:31:54;;;;;;;10.68;1.63;;;10.10;82.70;;;;;;5010701;28;20076;-68
2021/07/13 04:34:21;;;;;;;21.73;11.75;;;10.10;82.60;;;;;;5010541;28;20489;-68
2021/07/13 04:36:47;;;;;;;34.25;22.55;;;10.20;82.70;;;;;;5012486;28;20485;-68
2021/07/13 04:39:14;;;;;;;6.15;2.70;;;10.20;82.10;;;;;;5012336;28;20022;-69
2021/07/13 04:41:40;;;;;;;4.25;0.98;;;10.10;81.70;;;;;;5014203;28;20125;-70
2021/07/13 04:44:07;;;;;;;8.98;1.60;;;10.10;81.80;;;;;;5010945;28;20072;-71
2021/07/13 04:46:34;;;;;;;8.68;1.70;;;10.10;81.80;;;;;;5012172;28;20014;-72
2021/07/13 04:49:00;;;;;;;8.25;1.75;;;10.00;81.90;;;;;;5008504;28;20020;-67
2021/07/13 04:51:27;;;;;;;5.28;1.35;;;10.00;82.10;;;;;;5014696;28;20021;-67
2021/07/13 04:53:53;;;;;;;3.17;1.40;;;10.00;82.40;;;;;;5014441;28;20432;-68
2021/07/13 04:56:20;;;;;;;7.55;1.73;;;10.00;82.50;;;;;;5010344;28;20028;-68
2021/07/13 04:58:46;;;;;;;6.72;1.98;;;10.00;82.50;;;;;;5012273;28;20030;-67
2021/07/13 05:01:13;;;;;;;2.70;1.15;;;10.00;82.70;;;;;;5010986;28;20030;-68
2021/07/13 05:03:39;;;;;;;5.25;1.77;;;10.00;82.70;;;;;;5010806;28;20037;-67
2021/07/13 05:06:06;;;;;;;7.80;1.52;;;10.00;82.60;;;;;;5005882;28;20033;-68
2021/07/13 05:08:33;;;;;;;4.28;1.42;;;10.00;82.10;;;;;;5011825;28;20431;-67
2021/07/13 05:11:00;;;;;;;5.28;1.05;;;10.00;82.00;;;;;;5010507;28;20022;-67
2021/07/13 05:13:26;;;;;;;4.05;1.30;;;10.00;82.20;;;;;;5010669;28;20049;-68
2021/07/13 05:15:53;;;;;;;6.35;1.85;;;10.00;82.50;;;;;;5010299;28;20405;-67
2021/07/13 05:19:00;;;;;;;8.00;2.00;;;10.00;82.60;;;;;;5010248;28;20100;-71
2021/07/13 05:21:27;;;;;;;3.10;0.98;;;9.90;82.60;;;;;;5009697;28;20393;-68
2021/07/13 05:23:53;;;;;;;18.00;9.13;;;9.90;82.40;;;;;;5009441;28;20485;-67
2021/07/13 05:26:20;;;;;;;16.30;8.68;;;9.90;82.70;;;;;;5009767;28;20025;-67
2021/07/13 05:28:50;;;;;;;10.93;6.85;;;9.90;82.50;;;;;;5010459;28;20068;-68
2021/07/13 05:31:17;;;;;;;14.20;5.65;;;9.90;82.00;;;;;;5011141;28;20021;-68
2021/07/13 05:33:44;;;;;;;7.65;2.58;;;9.90;81.70;;;;;;5012418;28;20061;-67
2021/07/13 05:36:10;;;;;;;4.13;1.15;;;9.90;81.80;;;;;;5011334;28;20025;-67
2021/07/13 05:38:37;;;;;;;2.33;1.25;;;9.90;81.60;;;;;;5011711;28;20527;-67
2021/07/13 05:41:05;;;;;;;2.30;0.68;;;9.80;81.50;;;;;;5012044;28;20022;-67
2021/07/13 05:43:32;;;;;;;2.30;0.95;;;9.80;81.50;;;;;;5010964;28;20022;-67
2021/07/13 05:45:59;;;;;;;2.75;1.02;;;9.80;81.50;;;;;;5010314;28;20021;-67
2021/07/13 05:48:25;;;;;;;3.05;0.80;;;9.80;81.30;;;;;;5012339;28;20060;-67
2021/07/13 05:50:51;;;;;;;2.35;1.00;;;9.80;80.70;;;;;;5013478;28;20041;-67
2021/07/13 05:53:19;;;;;;;5.43;0.95;;;9.80;80.80;;;;;;5010609;28;20017;-67
2021/07/13 05:55:46;;;;;;;2.95;1.27;;;9.80;81.20;;;;;;5010424;28;20116;-67
2021/07/13 05:58:12;;;;;;;3.60;1.45;;;9.80;81.10;;;;;;5011943;28;20026;-67
2021/07/13 06:00:41;;;;;;;1.25;0.68;;;9.80;81.10;;;;;;5011288;28;20022;-67
2021/07/13 06:03:08;;;;;;;5.25;0.98;;;9.80;81.00;;;;;;5012682;28;20057;-67
2021/07/13 06:05:34;;;;;;;2.80;1.52;;;9.80;81.10;;;;;;5009250;28;20048;-70
2021/07/13 06:08:01;;;;;;;9.30;2.08;;;9.80;81.50;;;;;;5010997;28;20034;-68
2021/07/13 06:11:04;;;;;;;3.08;1.13;;;9.70;81.70;;;;;;5003614;28;20044;-68
2021/07/13 06:13:32;;;;;;;3.95;0.65;;;9.70;81.90;;;;;;5011302;28;20026;-67
2021/07/13 06:15:59;;;;;;;5.28;1.13;;;9.60;81.90;;;;;;5010725;28;20164;-68
2021/07/13 06:18:25;;;;;;;6.07;1.40;;;9.70;82.10;;;;;;5008852;28;20491;-67
2021/07/13 06:20:52;;;;;;;3.47;1.45;;;9.60;82.20;;;;;;5011721;28;20100;-69
2021/07/13 06:23:18;;;;;;;4.28;1.17;;;9.60;82.40;;;;;;5012005;28;20481;-68
2021/07/13 06:25:47;;;;;;;7.40;1.38;;;9.60;82.30;;;;;;5013596;28;20046;-67
2021/07/13 06:28:14;;;;;;;2.33;1.17;;;9.60;82.20;;;;;;5009673;28;20381;-69
2021/07/13 06:30:40;;;;;;;3.58;1.23;;;9.70;82.50;;;;;;5012592;28;20025;-68
2021/07/13 06:33:07;;;;;;;28.95;18.38;;;9.70;83.00;;;;;;5011466;28;20034;-67
2021/07/13 06:36:13;;;;;;;28.55;20.08;;;9.70;83.70;;;;;;5005651;28;20548;-67
2021/07/13 06:39:19;;;;;;;6.97;3.73;;;9.80;84.00;;;;;;5007529;28;20022;-67
2021/07/13 06:42:25;;;;;;;5.90;1.98;;;9.90;84.30;;;;;;5009731;28;20041;-69
2021/07/13 06:44:52;;;;;;;7.75;3.53;;;10.00;84.10;;;;;;5010935;28;20416;-67
2021/07/13 06:47:19;;;;;;;20.98;9.32;;;10.10;84.00;;;;;;5010273;28;20030;-67
2021/07/13 06:49:45;;;;;;;10.98;5.47;;;10.10;84.10;;;;;;5012186;28;20476;-67
2021/07/13 06:52:12;;;;;;;7.75;2.92;;;10.10;84.30;;;;;;5009494;28;20026;-67
2021/07/13 06:54:38;;;;;;;10.10;2.80;;;10.20;84.70;;;;;;5010034;28;20121;-68
2021/07/13 06:57:05;;;;;;;6.10;3.00;;;10.20;84.70;;;;;;5007712;28;20026;-68
2021/07/13 06:59:34;;;;;;;5.32;2.25;;;10.30;84.80;;;;;;5010485;28;20664;-68
2021/07/13 07:02:01;;;;;;;6.53;3.28;;;10.40;84.80;;;;;;5007483;28;20041;-67
2021/07/13 07:04:28;;;;;;;5.70;2.22;;;10.40;84.40;;;;;;5010548;28;20053;-67
2021/07/13 07:06:54;;;;;;;7.13;2.17;;;10.50;84.20;;;;;;5007864;28;20504;-67
2021/07/13 07:09:21;;;;;;;9.32;4.28;;;10.50;84.00;;;;;;5010981;28;20392;-67
2021/07/13 07:11:47;;;;;;;9.77;5.10;;;10.60;83.90;;;;;;5007899;28;20097;-66
2021/07/13 07:14:14;;;;;;;21.45;15.40;;;10.60;83.80;;;;;;5010301;28;20029;-67
2021/07/13 07:16:40;;;;;;;10.63;6.43;;;10.70;84.10;;;;;;5010464;28;20033;-67
2021/07/13 07:19:07;;;;;;;5.15;3.72;;;10.70;84.40;;;;;;5008066;28;20046;-66
2021/07/13 07:21:33;;;;;;;3.13;2.00;;;10.80;84.60;;;;;;5007524;28;20492;-67
2021/07/13 07:24:00;;;;;;;5.80;2.17;;;10.80;84.50;;;;;;5007250;28;20026;-67
2021/07/13 07:26:26;;;;;;;6.20;1.88;;;10.80;84.60;;;;;;5010068;28;20032;-67
2021/07/13 07:28:53;;;;;;;7.93;2.00;;;10.90;84.70;;;;;;5011049;28;20026;-66
2021/07/13 07:31:21;;;;;;;11.73;3.20;;;10.90;84.70;;;;;;5010502;28;20026;-67
2021/07/13 07:33:48;;;;;;;4.40;1.90;;;10.90;84.40;;;;;;5008965;28;20362;-67
2021/07/13 07:36:14;;;;;;;10.52;2.58;;;10.90;84.10;;;;;;5008830;28;20571;-67
2021/07/13 07:38:41;;;;;;;7.03;1.75;;;10.90;84.00;;;;;;5010806;28;20362;-67
2021/07/13 07:41:08;;;;;;;2.33;1.40;;;10.90;83.90;;;;;;5010185;28;20042;-66
2021/07/13 07:43:34;;;;;;;5.43;1.83;;;11.00;84.00;;;;;;5005330;28;20018;-67
2021/07/13 07:46:01;;;;;;;10.70;5.05;;;11.00;83.70;;;;;;5009572;28;20396;-67
2021/07/13 07:48:27;;;;;;;50.85;32.03;;;11.10;83.60;;;;;;5009717;28;20022;-69
2021/07/13 07:50:54;;;;;;;19.65;14.40;;;11.10;83.60;;;;;;5006368;28;20026;-68
2021/07/13 07:53:20;;;;;;;12.55;5.10;;;11.10;83.60;;;;;;5007428;28;20049;-68
2021/07/13 07:55:47;;;;;;;11.15;3.00;;;11.10;83.50;;;;;;5009843;28;20033;-68
2021/07/13 07:58:13;;;;;;;6.93;1.48;;;11.10;82.70;;;;;;5009700;28;20032;-68
2021/07/13 08:00:40;;;;;;;10.82;2.58;;;11.20;82.50;;;;;;5008931;28;20068;-68
2021/07/13 08:03:06;;;;;;;9.57;2.25;;;11.20;82.30;;;;;;5007038;28;20734;-67
2021/07/13 08:05:37;;;;;;;4.43;2.10;;;11.20;82.50;;;;;;5009906;28;20018;-67
2021/07/13 08:08:03;;;;;;;13.77;10.50;;;11.20;82.30;;;;;;5010883;28;20040;-67
2021/07/13 08:10:30;;;;;;;23.98;16.27;;;11.30;82.20;;;;;;5013149;28;20021;-68
2021/07/13 08:12:57;;;;;;;12.82;8.30;;;11.40;82.40;;;;;;5012169;28;20032;-68
2021/07/13 08:15:23;;;;;;;7.80;4.78;;;11.40;82.60;;;;;;5011459;28;20117;-67
2021/07/13 08:17:50;;;;;;;7.20;2.40;;;11.50;82.60;;;;;;5011832;28;20038;-68
2021/07/13 08:20:16;;;;;;;3.45;1.88;;;11.50;82.50;;;;;;5011191;28;20022;-68
2021/07/13 08:22:45;;;;;;;4.80;1.20;;;11.50;81.80;;;;;;5010208;28;20428;-70
2021/07/13 08:25:13;;;;;;;5.55;1.38;;;11.60;80.80;;;;;;5014197;28;20025;-68
2021/07/13 08:27:40;;;;;;;4.57;1.73;;;11.60;79.80;;;;;;5011535;28;20393;-72
2021/07/13 08:30:07;;;;;;;2.78;1.40;;;11.60;79.70;;;;;;5011403;28;20022;-69
2021/07/13 08:32:34;;;;;;;3.45;1.17;;;11.70;80.20;;;;;;5013328;28;20076;-65
2021/07/13 08:35:00;;;;;;;13.68;8.88;;;11.70;80.30;;;;;;5011268;28;20516;-66
2021/07/13 08:37:29;;;;;;;15.43;6.03;;;11.70;80.40;;;;;;5010304;28;20339;-66
2021/07/13 08:39:55;;;;;;;6.57;4.25;;;11.70;80.60;;;;;;5010340;28;20036;-67
2021/07/13 08:42:23;;;;;;;3.67;1.65;;;11.70;80.80;;;;;;5008484;28;20025;-66
2021/07/13 08:44:49;;;;;;;6.35;1.77;;;11.70;80.80;;;;;;5010832;28;20596;-66
2021/07/13 08:47:16;;;;;;;5.07;1.90;;;11.70;80.70;;;;;;5012487;28;20025;-66
2021/07/13 08:49:48;;;;;;;3.13;1.45;;;11.70;80.80;;;;;;5011969;28;20053;-68
2021/07/13 08:52:15;;;;;;;5.63;2.50;;;11.70;81.00;;;;;;5011999;28;20025;-67
2021/07/13 08:54:42;;;;;;;3.78;1.20;;;11.70;80.80;;;;;;5008611;28;20026;-68
2021/07/13 08:57:12;;;;;;;6.30;1.17;;;11.70;80.80;;;;;;5010329;28;20493;-68
2021/07/13 08:59:39;;;;;;;4.00;1.63;;;11.80;80.90;;;;;;5010073;28;20018;-68
2021/07/13 09:02:05;;;;;;;4.82;1.02;;;11.90;81.20;;;;;;5014872;28;20128;-68
2021/07/13 09:04:36;;;;;;;5.65;1.92;;;12.00;81.30;;;;;;5010803;28;20030;-68
2021/07/13 09:07:07;;;;;;;10.57;1.50;;;12.00;81.10;;;;;;5009309;28;20018;-68
2021/07/13 09:09:39;;;;;;;4.68;1.75;;;12.10;80.60;;;;;;5012525;28;20025;-68
2021/07/13 09:12:12;;;;;;;5.22;1.30;;;12.10;79.90;;;;;;5010000;28;20030;-68
2021/07/13 09:14:54;;;;;;;4.00;1.38;;;12.20;79.10;;;;;;5012233;28;20021;-68
2021/07/13 09:17:36;;;;;;;1.70;0.80;;;12.30;78.50;;;;;;5009151;28;20022;-68
2021/07/13 09:20:08;;;;;;;4.35;1.25;;;12.40;77.80;;;;;;5009881;28;20477;-68
2021/07/13 09:22:36;;;;;;;2.83;0.90;;;12.40;76.40;;;;;;5012699;28;20117;-68
2021/07/13 09:25:23;;;;;;;3.25;2.20;;;12.50;74.60;;;;;;5012955;28;20028;-68
2021/07/13 09:28:17;;;;;;;1.98;1.33;;;12.60;74.70;;;;;;5012157;28;20048;-68
2021/07/13 09:30:58;;;;;;;7.05;1.20;;;12.70;74.90;;;;;;5010743;28;20092;-68
2021/07/13 09:33:26;;;;;;;10.82;1.90;;;12.80;74.90;;;;;;5012187;28;20037;-68
2021/07/13 09:35:58;;;;;;;6.68;1.30;;;12.90;74.10;;;;;;5010927;28;20641;-68
2021/07/13 09:38:26;;;;;;;6.28;1.42;;;12.90;74.00;;;;;;5010745;28;20080;-68
2021/07/13 09:41:12;;;;;;;4.15;1.33;;;13.00;73.50;;;;;;5013535;28;20477;-68
2021/07/13 09:44:03;;;;;;;2.35;1.05;;;13.10;72.80;;;;;;5011639;28;20030;-69
2021/07/13 09:46:38;;;;;;;3.58;1.17;;;13.20;72.80;;;;;;5011368;28;20034;-68
2021/07/13 09:49:20;;;;;;;5.88;1.58;;;13.30;72.00;;;;;;5012801;28;20030;-68
2021/07/13 09:52:01;;;;;;;5.20;0.93;;;13.40;71.90;;;;;;5009887;28;20029;-68
2021/07/13 09:54:37;;;;;;;4.47;1.42;;;13.50;71.60;;;;;;5010809;28;20018;-68
2021/07/13 09:57:08;;;;;;;7.53;1.85;;;13.60;70.00;;;;;;5013725;28;20057;-69
2021/07/13 09:59:35;;;;;;;5.97;1.67;;;13.60;71.20;;;;;;5011426;28;20076;-68
2021/07/13 10:02:04;;;;;;;5.32;1.50;;;13.70;71.90;;;;;;5011401;28;20601;-69
2021/07/13 10:04:31;;;;;;;10.18;1.70;;;13.70;72.50;;;;;;5009494;28;20540;-69
2021/07/13 10:07:04;;;;;;;5.13;1.85;;;13.70;73.00;;;;;;5012543;28;20047;-69
2021/07/13 10:09:35;;;;;;;9.45;3.00;;;13.70;71.90;;;;;;5011752;28;20163;-68
2021/07/13 10:12:06;;;;;;;5.70;2.72;;;13.60;73.80;;;;;;5010916;28;20025;-67
2021/07/13 10:14:33;;;;;;;6.05;1.60;;;13.60;74.90;;;;;;5025295;28;20030;-68
2021/07/13 10:17:02;;;;;;;5.60;2.35;;;13.50;73.10;;;;;;5009677;28;20010;-68
2021/07/13 10:19:29;;;;;;;4.22;2.00;;;13.40;72.00;;;;;;5010048;28;20057;-68
2021/07/13 10:21:56;;;;;;;6.30;2.92;;;13.30;73.00;;;;;;5011843;28;20080;-68
2021/07/13 10:24:26;;;;;;;6.68;1.65;;;13.30;74.10;;;;;;5009596;28;20028;-69
2021/07/13 10:27:32;;;;;;;5.90;1.70;;;13.20;73.00;;;;;;5005311;28;20021;-69
2021/07/13 10:30:21;;;;;;;5.78;1.83;;;13.20;71.00;;;;;;5010488;28;20026;-68
2021/07/13 10:33:45;;;;;;;5.32;1.60;;;13.20;72.90;;;;;;5011557;28;20056;-68
2021/07/13 10:37:06;;;;;;;4.43;1.73;;;13.30;73.70;;;;;;5009198;28;20485;-68
2021/07/13 10:40:12;;;;;;;8.82;2.50;;;13.40;72.80;;;;;;5012679;28;20029;-68
2021/07/13 10:42:42;;;;;;;5.80;2.67;;;13.50;72.50;;;;;;5008056;28;20048;-68
2021/07/13 10:45:54;;;;;;;5.28;1.95;;;13.80;73.00;;;;;;5010955;28;20037;-68
2021/07/13 10:49:00;;;;;;;5.50;2.25;;;13.90;72.40;;;;;;5009380;28;20040;-68
2021/07/13 10:52:06;;;;;;;6.88;2.10;;;13.90;72.40;;;;;;5006521;28;20014;-68
2021/07/13 10:55:12;;;;;;;4.68;1.73;;;13.90;72.00;;;;;;5007255;28;20493;-68
2021/07/13 10:58:20;;;;;;;9.07;2.70;;;14.00;71.90;;;;;;5009744;28;20048;-68
2021/07/13 11:00:56;;;;;;;13.98;4.82;;;14.00;71.60;;;;;;5008055;28;20477;-68
2021/07/13 11:03:32;;;;;;;10.40;2.80;;;14.00;71.30;;;;;;5010158;28;20065;-68
2021/07/13 11:06:41;;;;;;;7.35;3.28;;;14.00;71.70;;;;;;5011435;28;20034;-67
2021/07/13 11:10:02;;;;;;;13.07;4.20;;;14.00;71.90;;;;;;5008314;28;20130;-68
2021/07/13 11:13:08;;;;;;;10.07;2.38;;;14.20;72.00;;;;;;5010862;28;20523;-68
2021/07/13 11:16:14;;;;;;;9.80;3.40;;;14.30;72.00;;;;;;5010627;28;20013;-68
2021/07/13 11:19:20;;;;;;;8.88;2.08;;;14.60;70.50;;;;;;5010268;28;20060;-68
2021/07/13 11:22:26;;;;;;;5.60;2.47;;;14.80;69.40;;;;;;5008542;28;20045;-68
2021/07/13 11:25:41;;;;;;;6.28;2.53;;;15.00;67.40;;;;;;5009253;28;20417;-68
2021/07/13 11:28:47;;;;;;;7.95;2.58;;;15.10;67.70;;;;;;5009481;28;20823;-68
2021/07/13 11:32:05;;;;;;;10.73;3.28;;;15.20;66.50;;;;;;5008851;28;20385;-68
2021/07/13 11:35:11;;;;;;;14.35;3.53;;;15.10;65.80;;;;;;5009209;28;20040;-68
2021/07/13 11:38:17;;;;;;;10.35;2.35;;;15.10;66.50;;;;;;5009917;28;20573;-68
2021/07/13 11:41:29;;;;;;;5.80;2.38;;;15.00;66.20;;;;;;5010889;28;20030;-69
2021/07/13 11:44:35;;;;;;;6.45;1.77;;;14.90;66.10;;;;;;5010169;28;20373;-68
2021/07/13 11:47:41;;;;;;;5.00;1.98;;;14.80;65.80;;;;;;5011790;28;20863;-68
2021/07/13 11:50:48;;;;;;;9.13;2.28;;;14.60;65.20;;;;;;5014129;28;20034;-68
2021/07/13 11:54:00;;;;;;;9.82;4.22;;;14.50;66.50;;;;;;5010999;28;20437;-68
2021/07/13 11:57:06;;;;;;;7.85;3.00;;;14.30;68.40;;;;;;5012528;28;20105;-68
2021/07/13 12:00:12;;;;;;;9.57;3.25;;;14.20;70.30;;;;;;5015024;28;20033;-68
2021/07/13 12:03:18;;;;;;;15.25;4.22;;;14.00;71.40;;;;;;5013706;28;20030;-68
2021/07/13 12:06:27;;;;;;;8.05;2.85;;;13.90;73.80;;;;;;5014482;28;20026;-68
2021/07/13 12:09:33;;;;;;;11.40;3.10;;;13.90;74.90;;;;;;5014886;28;20037;-69
2021/07/13 12:12:39;;;;;;;5.95;2.28;;;14.10;74.40;;;;;;5013948;28;20485;-69
2021/07/13 12:15:45;;;;;;;5.25;1.92;;;14.30;74.20;;;;;;5013722;28;20040;-69
2021/07/13 12:18:51;;;;;;;8.05;1.58;;;14.50;73.80;;;;;;5011337;28;20497;-69
2021/07/13 12:22:00;;;;;;;6.80;1.67;;;14.70;72.20;;;;;;5011772;28;20041;-68
2021/07/13 12:24:53;;;;;;;8.45;1.67;;;14.90;69.30;;;;;;5012484;28;20033;-68
2021/07/13 12:28:00;;;;;;;8.48;1.80;;;15.00;69.70;;;;;;5014206;28;20075;-68
2021/07/13 12:31:06;;;;;;;6.88;2.17;;;15.20;68.50;;;;;;5011819;28;20022;-68
2021/07/13 12:34:12;;;;;;;5.20;1.67;;;15.40;69.50;;;;;;5014485;28;20492;-69
2021/07/13 12:37:04;;;;;;;6.25;1.90;;;15.60;68.90;;;;;;5009982;28;20121;-68
2021/07/13 12:40:13;;;;;;;6.07;2.15;;;15.70;67.30;;;;;;5012731;28;20161;-68
2021/07/13 12:43:20;;;;;;;10.18;2.83;;;15.80;65.60;;;;;;5011452;28;20056;-68
2021/07/13 12:46:42;;;;;;;5.40;1.13;;;15.80;64.10;;;;;;5017147;28;20358;-68
2021/07/13 12:49:48;;;;;;;6.97;1.90;;;15.90;64.10;;;;;;5011706;28;20068;-69
2021/07/13 12:52:54;;;;;;;5.15;2.03;;;15.90;62.00;;;;;;5009216;28;20652;-69
2021/07/13 12:56:10;;;;;;;7.53;1.48;;;15.90;60.90;;;;;;5013373;28;20519;-69
2021/07/13 12:59:25;;;;;;;8.82;2.10;;;16.00;59.90;;;;;;5013637;28;20044;-69
2021/07/13 13:02:31;;;;;;;3.92;1.38;;;16.10;58.30;;;;;;5011009;28;20467;-69
2021/07/13 13:05:43;;;;;;;8.40;1.30;;;16.20;58.80;;;;;;5011620;28;20026;-69
2021/07/13 13:08:32;;;;;;;5.93;1.48;;;16.20;61.60;;;;;;5013619;28;20492;-68
2021/07/13 13:11:12;;;;;;;5.15;1.77;;;16.10;65.50;;;;;;5010811;28;20113;-69
2021/07/13 13:13:43;;;;;;;4.78;1.90;;;15.90;63.70;;;;;;5011702;28;20017;-68
2021/07/13 13:16:31;;;;;;;5.43;2.17;;;15.80;66.40;;;;;;5013624;28;20068;-68
2021/07/13 13:18:59;;;;;;;4.65;1.40;;;15.60;69.10;;;;;;5010336;28;20564;-68
2021/07/13 13:21:27;;;;;;;7.10;1.75;;;15.50;69.50;;;;;;5012721;28;20021;-68
2021/07/13 13:23:57;;;;;;;4.75;2.17;;;15.30;70.00;;;;;;5015068;28;20109;-68
2021/07/13 13:26:25;;;;;;;6.88;1.55;;;15.20;70.60;;;;;;5010724;28;20108;-69
2021/07/13 13:28:52;;;;;;;4.68;1.67;;;15.10;70.70;;;;;;5013705;28;20026;-68
2021/07/13 13:31:19;;;;;;;4.63;1.83;;;15.10;71.40;;;;;;5012037;28;20396;-69
2021/07/13 13:33:51;;;;;;;5.05;2.13;;;15.10;71.50;;;;;;5015381;28;20035;-68
2021/07/13 13:38:55;;;;;;;2.80;1.65;;;15.00;71.20;;;;;;5012115;28;20076;-68
2021/07/13 13:41:23;;;;;;;6.40;2.42;;;15.00;70.50;;;;;;5010043;28;20028;-68
2021/07/13 13:43:49;;;;;;;7.57;2.05;;;15.00;69.50;;;;;;5010309;28;20112;-68
2021/07/13 13:46:17;;;;;;;8.75;3.47;;;14.90;68.50;;;;;;5011853;28;20021;-68
2021/07/13 13:48:43;;;;;;;22.48;14.85;;;14.80;68.50;;;;;;5013129;28;20428;-69
2021/07/13 13:51:11;;;;;;;30.05;17.60;;;14.80;68.20;;;;;;5011572;28;20056;-68
2021/07/13 13:53:39;;;;;;;7.85;5.00;;;14.90;68.60;;;;;;5006083;28;20029;-68
2021/07/13 13:56:08;;;;;;;3.30;1.65;;;14.80;68.30;;;;;;5011578;28;20029;-69
2021/07/13 13:59:15;;;;;;;2.88;1.75;;;14.80;67.70;;;;;;5006769;28;20125;-68
2021/07/13 14:02:21;;;;;;;2.22;1.80;;;14.80;68.50;;;;;;5009193;28;20045;-68
2021/07/13 14:05:27;;;;;;;5.63;4.18;;;14.70;68.10;;;;;;5009251;28;20026;-68
2021/07/13 14:08:33;;;;;;;3.08;2.28;;;14.70;68.80;;;;;;5010403;28;20415;-68
2021/07/13 14:11:39;;;;;;;5.07;2.17;;;14.70;68.30;;;;;;5009715;28;20022;-68
2021/07/13 14:14:45;;;;;;;4.38;3.58;;;14.60;68.20;;;;;;5011460;28;20026;-68